Monday, December 10, 2018, 9:44 PM EST
Back to Local

KHPN, White Plains Westchester

Location: Greenwich, NY, United States Lat: 41.067
Local Time: 9:44 PM EST ( 2:44 GMT) Lon: -73.7
Time Zone: US/Eastern Elev: 439 ft

Show me the last for .
Show Decoded

2018-12-10 20:56 METAR KHPN 110156Z 31004KT 10SM CLR M04/M09 A3015 RMK AO2 SLP220 T10441094 =
2018-12-10 19:56 METAR KHPN 110056Z AUTO 02003KT 10SM CLR M01/M09 A3014 RMK AO2 SLP216 T10111094
                 =
2018-12-10 18:56 METAR KHPN 102356Z 03003KT 10SM CLR M01/M09 A3013 RMK AO2 SLP212 T10061094 10033
                 21006 53012 =
2018-12-10 17:56 METAR KHPN 102256Z 02005KT 10SM CLR M01/M09 A3012 RMK AO2 SLP208 T10061094 =
2018-12-10 16:56 METAR KHPN 102156Z 36006KT 10SM CLR 00/M09 A3010 RMK AO2 SLP203 T00001094 =
2018-12-10 15:56 METAR KHPN 102056Z 36009KT 10SM CLR 02/M09 A3009 RMK AO2 SLP200 T00221094 53004
                 =
2018-12-10 14:56 METAR KHPN 101956Z 36010KT 10SM CLR 03/M09 A3008 RMK AO2 SLP195 T00331089 =
2018-12-10 13:56 METAR KHPN 101856Z 33007KT 10SM CLR 03/M09 A3008 RMK AO2 SLP194 T00331089 =
2018-12-10 12:56 METAR KHPN 101756Z 35009KT 10SM CLR 03/M08 A3008 RMK AO2 SLP195 T00331078 10033
                 21033 56015 =
2018-12-10 11:56 METAR KHPN 101656Z 36008KT 10SM FEW020 02/M08 A3009 RMK AO2 SLP198 T00221078 =
2018-12-10 10:56 METAR KHPN 101556Z 01012G19KT 10SM FEW020 01/M07 A3011 RMK AO2 SLP206 T00111072
                 =
2018-12-10 09:56 METAR KHPN 101456Z 02010G15KT 10SM FEW020 01/M07 A3013 RMK AO2 SLP210 T00061072
                 53014 $ =
2018-12-10 08:56 METAR KHPN 101356Z VRB03KT 10SM CLR M01/M07 A3011 RMK AO2 SLP205 T10061072 $ =
2018-12-10 07:56 METAR KHPN 101256Z 00000KT 10SM CLR M03/M08 A3009 RMK AO2 SLP201 T10281078 $ =
2018-12-10 06:56 METAR KHPN 101156Z 36005KT 10SM CLR M03/M08 A3008 RMK AO2 SLP197 T10281078 11028
                 21056 53008 $ =
2018-12-10 05:56 METAR KHPN 101056Z 34005KT 10SM CLR M05/M09 A3007 RMK AO2 SLP192 T10501089 $ =
2018-12-10 04:56 METAR KHPN 100956Z 34006KT 10SM CLR M04/M09 A3006 RMK AO2 SLP188 T10441094 $ =
2018-12-10 03:56 METAR KHPN 100856Z 35003KT 10SM CLR M04/M10 A3006 RMK AO2 SLP188 T10441100 58008
                 $ =
2018-12-10 02:56 METAR KHPN 100756Z 33006KT 10SM CLR M05/M10 A3007 RMK AO2 SLP194 T10501100 $ =
2018-12-10 01:56 METAR KHPN 100656Z 32004KT 10SM CLR M04/M10 A3008 RMK AO2 SLP197 T10441100 $ =
2018-12-10 00:56 METAR KHPN 100556Z 36004KT 10SM CLR M04/M09 A3008 RMK AO2 SLP197 T10441094 11011
                 21044 56024 $ =
2018-12-09 23:56 METAR KHPN 100456Z 31005KT 10SM CLR M04/M09 A3010 RMK AO2 SLP202 T10391089
                 400061056 $ =
2018-12-09 22:56 METAR KHPN 100356Z 28004KT 10SM CLR M03/M09 A3013 RMK AO2 SLP211 T10281094 $ =
2018-12-09 21:56 METAR KHPN 100256Z 26003KT 10SM CLR M02/M09 A3016 RMK AO2 SLP220 T10171094 56014
                 $ =

Support USWX by starting your Amazon purchase here.